Strona główna
METAR-TAF:

METAR-TAF

Lotnisko :

Jekaterynburg, Rosja

Port lotniczy Jekaterynburg

Szerokość geograficzna: 56-50N, Długość geograficzna: 060-38E, wysokość: 237 m

Aktualna obserwacja pogody

Raport powstał 46 minut temu, godzina 05:00 UTC
Wiatr 2 kt od południe
Temperatura -18°C
Wilgotność 84%
Ciśnienie 1027 hPa
Widzialność: 8000 m
Mało chmury na wysokości 500 ft
Przerywane chmury na wysokości 1300 ft
słaby śnieg

METAR: USSS 180500Z 17001MPS 8000 -SN FEW005 BKN013 M18/M20 Q1027 R26R/290040 TEMPO 0300 FZFG VV002 RMK QFE749/0999

czas: 10:46 (05:46 UTC)

Prognoza

Raport powstał 46 minut temu, godzina 05:00 UTC
Prognoza ważna od 18 godzina 06 UTC do 19 godzina 06 UTC
Wiatr 6 kt od południowo-południowy zachód
Widzialność: 5000 m
Rozproszone chmury na wysokości 1100 ft
słaby śnieg, zamglenie

TAF: USSS 180500Z 1806/1906 20003MPS 5000 -SN BR SCT011

Obserwacja i prognoza pogody dla ponad 4000 lotnisk (raport METAR i TAF).

Dostępne stacje oznaczono żółtymi i czerwonymi punktami na mapie.

Najedź kursorem aby zobaczyć nazwę stacji.

Kliknij aby zobaczyć obserwacje i prognozy pogody.

Aby zmienić mapę: kliknij na zielony przycisk z czarnym krzyżykiem, aby powiększyć; na zielony przycisk z myślnikiem, aby pomniejszyć; na zielone strzałki, aby przejść do map sąsiednich.


METAR-TAF: